sensor_id;sensor_type;location;lat;lon;timestamp;temperature;humidity
39847;DHT22;25517;52.422;10.782;2022-09-20T00:00:03;9.20;99.90
39847;DHT22;25517;52.422;10.782;2022-09-20T00:02:29;9.20;99.90
39847;DHT22;25517;52.422;10.782;2022-09-20T00:04:55;9.20;99.90
39847;DHT22;25517;52.422;10.782;2022-09-20T00:07:21;9.10;99.90
39847;DHT22;25517;52.422;10.782;2022-09-20T00:09:46;9.10;99.90
39847;DHT22;25517;52.422;10.782;2022-09-20T00:12:11;9.10;99.90
39847;DHT22;25517;52.422;10.782;2022-09-20T00:14:37;9.10;99.90
39847;DHT22;25517;52.422;10.782;2022-09-20T00:17:02;9.10;99.90
39847;DHT22;25517;52.422;10.782;2022-09-20T00:19:28;9.10;99.90
39847;DHT22;25517;52.422;10.782;2022-09-20T00:21:53;9.00;99.90
39847;DHT22;25517;52.422;10.782;2022-09-20T00:24:19;9.00;99.90
39847;DHT22;25517;52.422;10.782;2022-09-20T00:26:45;9.00;99.90
39847;DHT22;25517;52.422;10.782;2022-09-20T00:29:10;9.00;99.90
39847;DHT22;25517;52.422;10.782;2022-09-20T00:31:37;9.00;99.90
39847;DHT22;25517;52.422;10.782;2022-09-20T00:34:04;9.00;99.90
39847;DHT22;25517;52.422;10.782;2022-09-20T00:36:48;9.00;99.90
39847;DHT22;25517;52.422;10.782;2022-09-20T00:39:14;9.00;99.90
39847;DHT22;25517;52.422;10.782;2022-09-20T00:41:40;9.10;99.90
39847;DHT22;25517;52.422;10.782;2022-09-20T00:44:41;9.10;99.90
39847;DHT22;25517;52.422;10.782;2022-09-20T00:47:10;9.00;99.90
39847;DHT22;25517;52.422;10.782;2022-09-20T00:49:37;9.10;99.90
39847;DHT22;25517;52.422;10.782;2022-09-20T00:52:03;9.10;99.90
39847;DHT22;25517;52.422;10.782;2022-09-20T00:54:30;9.10;99.90
39847;DHT22;25517;52.422;10.782;2022-09-20T00:56:56;9.20;99.90
39847;DHT22;25517;52.422;10.782;2022-09-20T00:59:23;9.20;99.90
39847;DHT22;25517;52.422;10.782;2022-09-20T01:01:55;9.20;99.90
39847;DHT22;25517;52.422;10.782;2022-09-20T01:04:23;9.20;99.90
39847;DHT22;25517;52.422;10.782;2022-09-20T01:06:51;9.30;99.90
39847;DHT22;25517;52.422;10.782;2022-09-20T01:09:18;9.30;99.90
39847;DHT22;25517;52.422;10.782;2022-09-20T01:11:44;9.30;99.90
39847;DHT22;25517;52.422;10.782;2022-09-20T01:14:12;9.30;99.90
39847;DHT22;25517;52.422;10.782;2022-09-20T01:16:39;9.30;99.90
39847;DHT22;25517;52.422;10.782;2022-09-20T01:19:18;9.40;99.90
39847;DHT22;25517;52.422;10.782;2022-09-20T01:21:47;9.40;99.90
39847;DHT22;25517;52.422;10.782;2022-09-20T01:24:37;9.40;99.90
39847;DHT22;25517;52.422;10.782;2022-09-20T01:29:54;9.40;99.90
39847;DHT22;25517;52.422;10.782;2022-09-20T01:32:25;9.40;99.90
39847;DHT22;25517;52.422;10.782;2022-09-20T01:34:54;9.40;99.90
39847;DHT22;25517;52.422;10.782;2022-09-20T01:40:47;9.40;99.90
39847;DHT22;25517;52.422;10.782;2022-09-20T01:43:55;9.40;99.90
39847;DHT22;25517;52.422;10.782;2022-09-20T01:46:32;9.50;99.90
39847;DHT22;25517;52.422;10.782;2022-09-20T02:00:28;9.50;99.90
39847;DHT22;25517;52.422;10.782;2022-09-20T02:03:12;9.50;99.90
39847;DHT22;25517;52.422;10.782;2022-09-20T02:05:46;9.50;99.90
39847;DHT22;25517;52.422;10.782;2022-09-20T02:11:10;9.60;99.90
39847;DHT22;25517;52.422;10.782;2022-09-20T02:19:03;9.70;99.90
39847;DHT22;25517;52.422;10.782;2022-09-20T02:27:39;9.70;99.90
39847;DHT22;25517;52.422;10.782;2022-09-20T02:47:11;9.70;99.90
39847;DHT22;25517;52.422;10.782;2022-09-20T02:50:00;9.70;99.90
39847;DHT22;25517;52.422;10.782;2022-09-20T02:55:21;9.60;99.90
39847;DHT22;25517;52.422;10.782;2022-09-20T03:00:52;9.60;99.90
39847;DHT22;25517;52.422;10.782;2022-09-20T03:03:22;9.60;99.90
39847;DHT22;25517;52.422;10.782;2022-09-20T03:09:12;9.60;99.90
39847;DHT22;25517;52.422;10.782;2022-09-20T03:11:46;9.60;99.90
39847;DHT22;25517;52.422;10.782;2022-09-20T03:14:23;9.60;99.90
39847;DHT22;25517;52.422;10.782;2022-09-20T03:17:23;9.60;99.90
39847;DHT22;25517;52.422;10.782;2022-09-20T03:23:05;9.60;99.90
39847;DHT22;25517;52.422;10.782;2022-09-20T03:31:17;9.60;99.90
39847;DHT22;25517;52.422;10.782;2022-09-20T03:34:09;9.50;99.90
39847;DHT22;25517;52.422;10.782;2022-09-20T03:36:43;9.40;99.90
39847;DHT22;25517;52.422;10.782;2022-09-20T03:42:07;9.50;99.90
39847;DHT22;25517;52.422;10.782;2022-09-20T03:50:31;9.50;99.90
39847;DHT22;25517;52.422;10.782;2022-09-20T03:58:07;9.50;99.90
39847;DHT22;25517;52.422;10.782;2022-09-20T04:01:01;9.50;99.90
39847;DHT22;25517;52.422;10.782;2022-09-20T04:03:45;9.50;99.90
39847;DHT22;25517;52.422;10.782;2022-09-20T04:12:19;9.50;99.90
39847;DHT22;25517;52.422;10.782;2022-09-20T04:14:54;9.50;99.90
39847;DHT22;25517;52.422;10.782;2022-09-20T04:17:47;9.50;99.90
39847;DHT22;25517;52.422;10.782;2022-09-20T04:20:41;9.50;99.90
39847;DHT22;25517;52.422;10.782;2022-09-20T04:26:02;9.40;99.90
39847;DHT22;25517;52.422;10.782;2022-09-20T04:28:46;9.40;99.90
39847;DHT22;25517;52.422;10.782;2022-09-20T04:31:37;9.40;99.90
39847;DHT22;25517;52.422;10.782;2022-09-20T04:34:12;9.40;99.90
39847;DHT22;25517;52.422;10.782;2022-09-20T04:36:59;9.40;99.90
39847;DHT22;25517;52.422;10.782;2022-09-20T04:39:51;9.40;99.90
39847;DHT22;25517;52.422;10.782;2022-09-20T04:48:53;9.40;99.90
39847;DHT22;25517;52.422;10.782;2022-09-20T04:54:44;9.40;99.90
39847;DHT22;25517;52.422;10.782;2022-09-20T05:00:19;9.40;99.90
39847;DHT22;25517;52.422;10.782;2022-09-20T05:05:49;9.40;99.90
39847;DHT22;25517;52.422;10.782;2022-09-20T05:08:44;9.40;99.90
39847;DHT22;25517;52.422;10.782;2022-09-20T05:14:23;9.40;99.90
39847;DHT22;25517;52.422;10.782;2022-09-20T05:25:31;9.50;99.90
39847;DHT22;25517;52.422;10.782;2022-09-20T05:30:48;9.50;99.90
39847;DHT22;25517;52.422;10.782;2022-09-20T05:33:39;9.50;99.90
39847;DHT22;25517;52.422;10.782;2022-09-20T05:36:38;9.50;99.90
39847;DHT22;25517;52.422;10.782;2022-09-20T05:39:30;9.50;99.90
39847;DHT22;25517;52.422;10.782;2022-09-20T05:42:07;9.50;99.90
39847;DHT22;25517;52.422;10.782;2022-09-20T05:47:58;9.60;99.90
39847;DHT22;25517;52.422;10.782;2022-09-20T05:56:22;9.70;99.90
39847;DHT22;25517;52.422;10.782;2022-09-20T05:59:16;9.70;99.90
39847;DHT22;25517;52.422;10.782;2022-09-20T06:02:01;9.70;99.90
39847;DHT22;25517;52.422;10.782;2022-09-20T06:04:50;9.80;99.90
39847;DHT22;25517;52.422;10.782;2022-09-20T06:13:39;9.70;99.90
39847;DHT22;25517;52.422;10.782;2022-09-20T06:16:11;9.80;99.90
39847;DHT22;25517;52.422;10.782;2022-09-20T06:18:56;9.70;99.90
39847;DHT22;25517;52.422;10.782;2022-09-20T06:21:35;9.70;99.90
39847;DHT22;25517;52.422;10.782;2022-09-20T06:24:04;9.80;99.90
39847;DHT22;25517;52.422;10.782;2022-09-20T06:26:35;9.80;99.90
39847;DHT22;25517;52.422;10.782;2022-09-20T06:29:04;9.80;99.90
39847;DHT22;25517;52.422;10.782;2022-09-20T06:31:30;9.80;99.90
39847;DHT22;25517;52.422;10.782;2022-09-20T06:34:08;9.80;99.90
39847;DHT22;25517;52.422;10.782;2022-09-20T06:36:38;9.80;99.90
39847;DHT22;25517;52.422;10.782;2022-09-20T06:39:52;9.80;99.90
39847;DHT22;25517;52.422;10.782;2022-09-20T06:42:52;9.90;99.90
39847;DHT22;25517;52.422;10.782;2022-09-20T06:45:19;10.00;99.90
39847;DHT22;25517;52.422;10.782;2022-09-20T06:47:44;10.00;99.90
39847;DHT22;25517;52.422;10.782;2022-09-20T06:50:17;10.10;99.90
39847;DHT22;25517;52.422;10.782;2022-09-20T06:52:43;10.10;99.90
39847;DHT22;25517;52.422;10.782;2022-09-20T06:55:17;10.20;99.90
39847;DHT22;25517;52.422;10.782;2022-09-20T06:57:45;10.20;99.90
39847;DHT22;25517;52.422;10.782;2022-09-20T07:00:13;10.20;99.90
39847;DHT22;25517;52.422;10.782;2022-09-20T07:02:40;10.10;99.90
39847;DHT22;25517;52.422;10.782;2022-09-20T07:05:14;10.10;99.90
39847;DHT22;25517;52.422;10.782;2022-09-20T07:07:39;10.10;99.90
39847;DHT22;25517;52.422;10.782;2022-09-20T07:10:05;10.10;99.90
39847;DHT22;25517;52.422;10.782;2022-09-20T07:12:31;10.20;99.90
39847;DHT22;25517;52.422;10.782;2022-09-20T07:14:58;10.20;99.90
39847;DHT22;25517;52.422;10.782;2022-09-20T07:17:24;10.20;99.90
39847;DHT22;25517;52.422;10.782;2022-09-20T07:19:49;10.20;99.90
39847;DHT22;25517;52.422;10.782;2022-09-20T07:22:15;10.20;99.90
39847;DHT22;25517;52.422;10.782;2022-09-20T07:24:41;10.20;99.90
39847;DHT22;25517;52.422;10.782;2022-09-20T07:27:10;10.30;99.90
39847;DHT22;25517;52.422;10.782;2022-09-20T07:29:36;10.20;99.90
39847;DHT22;25517;52.422;10.782;2022-09-20T07:32:01;10.30;99.90
39847;DHT22;25517;52.422;10.782;2022-09-20T07:34:27;10.30;99.90
39847;DHT22;25517;52.422;10.782;2022-09-20T07:36:53;10.40;99.90
39847;DHT22;25517;52.422;10.782;2022-09-20T07:39:21;10.50;99.90
39847;DHT22;25517;52.422;10.782;2022-09-20T07:41:47;10.60;99.90
39847;DHT22;25517;52.422;10.782;2022-09-20T07:44:15;10.60;99.90
39847;DHT22;25517;52.422;10.782;2022-09-20T07:46:59;10.60;99.90
39847;DHT22;25517;52.422;10.782;2022-09-20T07:49:26;10.70;99.90
39847;DHT22;25517;52.422;10.782;2022-09-20T07:51:54;10.70;99.90
39847;DHT22;25517;52.422;10.782;2022-09-20T07:54:20;10.80;99.90
39847;DHT22;25517;52.422;10.782;2022-09-20T07:56:46;10.80;99.90
39847;DHT22;25517;52.422;10.782;2022-09-20T07:59:12;10.70;99.90
39847;DHT22;25517;52.422;10.782;2022-09-20T08:01:38;10.80;99.90
39847;DHT22;25517;52.422;10.782;2022-09-20T08:04:05;10.90;99.90
39847;DHT22;25517;52.422;10.782;2022-09-20T08:06:31;11.00;99.90
39847;DHT22;25517;52.422;10.782;2022-09-20T08:08:57;11.10;99.90
39847;DHT22;25517;52.422;10.782;2022-09-20T08:11:23;11.20;99.90
39847;DHT22;25517;52.422;10.782;2022-09-20T08:13:51;11.30;99.90
39847;DHT22;25517;52.422;10.782;2022-09-20T08:16:18;11.20;99.90
39847;DHT22;25517;52.422;10.782;2022-09-20T08:18:45;11.30;99.90
39847;DHT22;25517;52.422;10.782;2022-09-20T08:21:11;11.30;99.90
39847;DHT22;25517;52.422;10.782;2022-09-20T08:23:41;11.40;99.90
39847;DHT22;25517;52.422;10.782;2022-09-20T08:26:10;11.40;99.90
39847;DHT22;25517;52.422;10.782;2022-09-20T08:28:38;11.40;99.90
39847;DHT22;25517;52.422;10.782;2022-09-20T08:31:15;11.40;99.90
39847;DHT22;25517;52.422;10.782;2022-09-20T08:33:44;11.40;99.90
39847;DHT22;25517;52.422;10.782;2022-09-20T08:36:22;11.40;99.90
39847;DHT22;25517;52.422;10.782;2022-09-20T08:38:48;11.40;99.90
39847;DHT22;25517;52.422;10.782;2022-09-20T08:41:18;11.50;99.90
39847;DHT22;25517;52.422;10.782;2022-09-20T08:43:54;11.50;99.90
39847;DHT22;25517;52.422;10.782;2022-09-20T08:46:27;11.60;99.90
39847;DHT22;25517;52.422;10.782;2022-09-20T08:48:54;11.70;99.90
39847;DHT22;25517;52.422;10.782;2022-09-20T08:51:20;11.60;99.90
39847;DHT22;25517;52.422;10.782;2022-09-20T08:53:50;11.70;99.90
39847;DHT22;25517;52.422;10.782;2022-09-20T08:56:17;11.60;99.90
39847;DHT22;25517;52.422;10.782;2022-09-20T08:58:43;11.70;99.90
39847;DHT22;25517;52.422;10.782;2022-09-20T09:01:20;11.80;99.90
39847;DHT22;25517;52.422;10.782;2022-09-20T09:03:46;11.80;99.90
39847;DHT22;25517;52.422;10.782;2022-09-20T09:06:18;11.90;99.90
39847;DHT22;25517;52.422;10.782;2022-09-20T09:08:44;12.00;99.90
39847;DHT22;25517;52.422;10.782;2022-09-20T09:11:14;12.20;99.90
39847;DHT22;25517;52.422;10.782;2022-09-20T09:13:52;12.10;99.90
39847;DHT22;25517;52.422;10.782;2022-09-20T09:16:21;12.40;99.90
39847;DHT22;25517;52.422;10.782;2022-09-20T09:18:48;12.50;99.90
39847;DHT22;25517;52.422;10.782;2022-09-20T09:21:25;12.50;99.90
39847;DHT22;25517;52.422;10.782;2022-09-20T09:26:37;12.60;99.90
39847;DHT22;25517;52.422;10.782;2022-09-20T09:29:22;12.50;99.90
39847;DHT22;25517;52.422;10.782;2022-09-20T09:31:52;12.70;99.90
39847;DHT22;25517;52.422;10.782;2022-09-20T09:34:27;12.80;99.90
39847;DHT22;25517;52.422;10.782;2022-09-20T09:36:53;12.90;99.90
39847;DHT22;25517;52.422;10.782;2022-09-20T09:39:35;12.80;99.90
39847;DHT22;25517;52.422;10.782;2022-09-20T09:42:19;12.80;99.90
39847;DHT22;25517;52.422;10.782;2022-09-20T09:44:44;12.80;99.90
39847;DHT22;25517;52.422;10.782;2022-09-20T09:47:27;12.80;99.90
39847;DHT22;25517;52.422;10.782;2022-09-20T09:49:57;12.90;99.90
39847;DHT22;25517;52.422;10.782;2022-09-20T09:52:23;12.90;99.90
39847;DHT22;25517;52.422;10.782;2022-09-20T09:54:54;12.80;99.90
39847;DHT22;25517;52.422;10.782;2022-09-20T10:00:19;12.80;99.90
39847;DHT22;25517;52.422;10.782;2022-09-20T10:02:48;12.90;99.90
39847;DHT22;25517;52.422;10.782;2022-09-20T10:08:22;12.80;99.90
39847;DHT22;25517;52.422;10.782;2022-09-20T10:11:04;12.80;99.90
39847;DHT22;25517;52.422;10.782;2022-09-20T10:19:41;15.10;99.90
39847;DHT22;25517;52.422;10.782;2022-09-20T10:22:24;15.90;99.90
39847;DHT22;25517;52.422;10.782;2022-09-20T10:31:11;18.30;99.90
39847;DHT22;25517;52.422;10.782;2022-09-20T10:33:59;20.40;99.90
39847;DHT22;25517;52.422;10.782;2022-09-20T10:36:59;21.80;96.20
39847;DHT22;25517;52.422;10.782;2022-09-20T10:39:34;22.20;94.70
39847;DHT22;25517;52.422;10.782;2022-09-20T10:45:44;24.40;86.40
39847;DHT22;25517;52.422;10.782;2022-09-20T10:48:31;25.60;83.00
39847;DHT22;25517;52.422;10.782;2022-09-20T10:51:00;26.20;73.50
39847;DHT22;25517;52.422;10.782;2022-09-20T10:53:47;26.60;75.60
39847;DHT22;25517;52.422;10.782;2022-09-20T10:56:35;27.00;71.80
39847;DHT22;25517;52.422;10.782;2022-09-20T10:59:08;27.30;68.60
39847;DHT22;25517;52.422;10.782;2022-09-20T11:01:58;27.00;69.10
39847;DHT22;25517;52.422;10.782;2022-09-20T11:07:17;25.50;70.80
39847;DHT22;25517;52.422;10.782;2022-09-20T11:09:56;24.90;70.10
39847;DHT22;25517;52.422;10.782;2022-09-20T11:12:28;25.30;72.90
39847;DHT22;25517;52.422;10.782;2022-09-20T11:15:02;25.80;71.90
39847;DHT22;25517;52.422;10.782;2022-09-20T11:17:34;26.50;70.00
39847;DHT22;25517;52.422;10.782;2022-09-20T11:20:16;25.90;64.10
39847;DHT22;25517;52.422;10.782;2022-09-20T11:22:51;25.80;69.10
39847;DHT22;25517;52.422;10.782;2022-09-20T11:25:33;26.50;68.10
39847;DHT22;25517;52.422;10.782;2022-09-20T11:28:11;27.10;66.20
39847;DHT22;25517;52.422;10.782;2022-09-20T11:30:45;26.90;65.20
39847;DHT22;25517;52.422;10.782;2022-09-20T11:33:34;27.10;65.40
39847;DHT22;25517;52.422;10.782;2022-09-20T11:36:04;27.50;65.00
39847;DHT22;25517;52.422;10.782;2022-09-20T11:41:17;27.40;66.90
39847;DHT22;25517;52.422;10.782;2022-09-20T11:43:45;27.40;63.40
39847;DHT22;25517;52.422;10.782;2022-09-20T11:46:24;27.30;64.20
39847;DHT22;25517;52.422;10.782;2022-09-20T11:57:21;26.20;63.10
39847;DHT22;25517;52.422;10.782;2022-09-20T11:59:53;26.70;63.00
39847;DHT22;25517;52.422;10.782;2022-09-20T12:02:23;27.00;61.30
39847;DHT22;25517;52.422;10.782;2022-09-20T12:04:51;26.70;62.90
39847;DHT22;25517;52.422;10.782;2022-09-20T12:07:40;26.80;62.40
39847;DHT22;25517;52.422;10.782;2022-09-20T12:10:20;27.10;60.80
39847;DHT22;25517;52.422;10.782;2022-09-20T12:12:47;25.70;60.40
39847;DHT22;25517;52.422;10.782;2022-09-20T12:15:34;25.00;61.50
39847;DHT22;25517;52.422;10.782;2022-09-20T12:18:26;24.80;64.30
39847;DHT22;25517;52.422;10.782;2022-09-20T12:21:00;23.90;64.70
39847;DHT22;25517;52.422;10.782;2022-09-20T12:28:50;24.00;67.00
39847;DHT22;25517;52.422;10.782;2022-09-20T12:36:21;23.20;68.00
39847;DHT22;25517;52.422;10.782;2022-09-20T12:38:50;23.10;71.20
39847;DHT22;25517;52.422;10.782;2022-09-20T12:41:18;22.60;63.60
39847;DHT22;25517;52.422;10.782;2022-09-20T12:43:59;21.90;70.40
39847;DHT22;25517;52.422;10.782;2022-09-20T12:49:19;20.50;67.80
39847;DHT22;25517;52.422;10.782;2022-09-20T12:52:04;20.10;71.10
39847;DHT22;25517;52.422;10.782;2022-09-20T12:54:52;19.90;76.90
39847;DHT22;25517;52.422;10.782;2022-09-20T12:57:29;19.30;69.70
39847;DHT22;25517;52.422;10.782;2022-09-20T13:00:02;19.00;72.70
39847;DHT22;25517;52.422;10.782;2022-09-20T13:05:34;18.80;77.50
39847;DHT22;25517;52.422;10.782;2022-09-20T13:08:40;18.70;77.90
39847;DHT22;25517;52.422;10.782;2022-09-20T13:11:11;18.30;82.90
39847;DHT22;25517;52.422;10.782;2022-09-20T13:13:38;17.90;85.80
39847;DHT22;25517;52.422;10.782;2022-09-20T13:19:16;17.60;83.60
39847;DHT22;25517;52.422;10.782;2022-09-20T13:21:59;17.50;84.70
39847;DHT22;25517;52.422;10.782;2022-09-20T13:24:27;17.40;83.70
39847;DHT22;25517;52.422;10.782;2022-09-20T13:27:00;17.30;84.30
39847;DHT22;25517;52.422;10.782;2022-09-20T13:29:34;17.00;84.30
39847;DHT22;25517;52.422;10.782;2022-09-20T13:32:24;16.70;86.50
39847;DHT22;25517;52.422;10.782;2022-09-20T13:37:39;16.40;85.90
39847;DHT22;25517;52.422;10.782;2022-09-20T13:40:17;16.00;88.30
39847;DHT22;25517;52.422;10.782;2022-09-20T13:42:45;15.60;90.30
39847;DHT22;25517;52.422;10.782;2022-09-20T13:45:12;15.30;91.60
39847;DHT22;25517;52.422;10.782;2022-09-20T13:47:41;15.00;91.90
39847;DHT22;25517;52.422;10.782;2022-09-20T13:52:55;14.80;92.50
39847;DHT22;25517;52.422;10.782;2022-09-20T13:55:33;14.80;92.10
39847;DHT22;25517;52.422;10.782;2022-09-20T13:58:03;14.80;93.50
39847;DHT22;25517;52.422;10.782;2022-09-20T14:00:31;14.70;94.20
39847;DHT22;25517;52.422;10.782;2022-09-20T14:02:57;14.80;94.90
39847;DHT22;25517;52.422;10.782;2022-09-20T14:05:25;14.90;95.40
39847;DHT22;25517;52.422;10.782;2022-09-20T14:07:52;14.80;94.60
39847;DHT22;25517;52.422;10.782;2022-09-20T14:10:28;15.00;97.10
39847;DHT22;25517;52.422;10.782;2022-09-20T14:12:57;14.90;96.10
39847;DHT22;25517;52.422;10.782;2022-09-20T14:15:23;14.90;95.60
39847;DHT22;25517;52.422;10.782;2022-09-20T14:17:49;14.90;95.70
39847;DHT22;25517;52.422;10.782;2022-09-20T14:20:17;14.70;96.30
39847;DHT22;25517;52.422;10.782;2022-09-20T14:22:43;14.70;97.70
39847;DHT22;25517;52.422;10.782;2022-09-20T14:27:37;14.40;99.90
39847;DHT22;25517;52.422;10.782;2022-09-20T14:30:03;14.30;99.90
39847;DHT22;25517;52.422;10.782;2022-09-20T14:32:37;14.20;99.90
39847;DHT22;25517;52.422;10.782;2022-09-20T14:35:20;14.10;99.90
39847;DHT22;25517;52.422;10.782;2022-09-20T14:37:54;14.10;99.90
39847;DHT22;25517;52.422;10.782;2022-09-20T14:40:25;14.10;99.90
39847;DHT22;25517;52.422;10.782;2022-09-20T14:42:57;14.10;99.90
39847;DHT22;25517;52.422;10.782;2022-09-20T14:45:59;14.20;99.90
39847;DHT22;25517;52.422;10.782;2022-09-20T14:50:44;14.10;99.90
39847;DHT22;25517;52.422;10.782;2022-09-20T14:55:57;14.10;99.90
39847;DHT22;25517;52.422;10.782;2022-09-20T14:58:23;13.90;99.90
39847;DHT22;25517;52.422;10.782;2022-09-20T15:03:25;14.20;99.90
39847;DHT22;25517;52.422;10.782;2022-09-20T15:05:51;14.50;99.80
39847;DHT22;25517;52.422;10.782;2022-09-20T15:08:17;14.50;99.10
39847;DHT22;25517;52.422;10.782;2022-09-20T15:10:44;14.70;99.80
39847;DHT22;25517;52.422;10.782;2022-09-20T15:13:10;14.90;99.90
39847;DHT22;25517;52.422;10.782;2022-09-20T15:15:36;15.00;98.70
39847;DHT22;25517;52.422;10.782;2022-09-20T15:18:02;15.00;99.50
39847;DHT22;25517;52.422;10.782;2022-09-20T15:20:28;15.10;99.30
39847;DHT22;25517;52.422;10.782;2022-09-20T15:22:53;15.20;98.90
39847;DHT22;25517;52.422;10.782;2022-09-20T15:25:20;15.10;99.60
39847;DHT22;25517;52.422;10.782;2022-09-20T15:27:47;15.00;99.50
39847;DHT22;25517;52.422;10.782;2022-09-20T15:30:16;14.90;99.90
39847;DHT22;25517;52.422;10.782;2022-09-20T15:32:45;15.00;99.90
39847;DHT22;25517;52.422;10.782;2022-09-20T15:35:11;15.10;99.50
39847;DHT22;25517;52.422;10.782;2022-09-20T15:37:38;15.20;98.50
39847;DHT22;25517;52.422;10.782;2022-09-20T15:40:05;15.10;99.20
39847;DHT22;25517;52.422;10.782;2022-09-20T15:42:33;15.10;98.10
39847;DHT22;25517;52.422;10.782;2022-09-20T15:45:06;15.10;98.50
39847;DHT22;25517;52.422;10.782;2022-09-20T15:47:34;15.20;99.30
39847;DHT22;25517;52.422;10.782;2022-09-20T15:49:59;15.20;99.20
39847;DHT22;25517;52.422;10.782;2022-09-20T15:52:25;15.20;98.10
39847;DHT22;25517;52.422;10.782;2022-09-20T15:54:52;15.10;98.60
39847;DHT22;25517;52.422;10.782;2022-09-20T15:57:18;15.00;99.70
39847;DHT22;25517;52.422;10.782;2022-09-20T15:59:43;15.00;99.30
39847;DHT22;25517;52.422;10.782;2022-09-20T16:02:09;15.00;99.40
39847;DHT22;25517;52.422;10.782;2022-09-20T16:04:36;15.00;99.30
39847;DHT22;25517;52.422;10.782;2022-09-20T16:07:02;15.00;99.90
39847;DHT22;25517;52.422;10.782;2022-09-20T16:09:29;15.00;99.90
39847;DHT22;25517;52.422;10.782;2022-09-20T16:11:54;14.90;99.90
39847;DHT22;25517;52.422;10.782;2022-09-20T16:14:23;14.70;99.90
39847;DHT22;25517;52.422;10.782;2022-09-20T16:16:48;14.60;99.90
39847;DHT22;25517;52.422;10.782;2022-09-20T16:19:14;14.50;99.90
39847;DHT22;25517;52.422;10.782;2022-09-20T16:21:53;14.30;99.90
39847;DHT22;25517;52.422;10.782;2022-09-20T16:26:50;14.10;99.90
39847;DHT22;25517;52.422;10.782;2022-09-20T16:29:15;14.00;99.90
39847;DHT22;25517;52.422;10.782;2022-09-20T16:31:46;13.90;99.90
39847;DHT22;25517;52.422;10.782;2022-09-20T16:34:13;13.70;99.90
39847;DHT22;25517;52.422;10.782;2022-09-20T16:36:41;13.60;99.90
39847;DHT22;25517;52.422;10.782;2022-09-20T16:39:07;13.50;99.90
39847;DHT22;25517;52.422;10.782;2022-09-20T16:41:33;13.50;99.90
39847;DHT22;25517;52.422;10.782;2022-09-20T16:43:59;13.40;99.90
39847;DHT22;25517;52.422;10.782;2022-09-20T16:46:25;13.40;99.90
39847;DHT22;25517;52.422;10.782;2022-09-20T16:48:54;13.30;99.90
39847;DHT22;25517;52.422;10.782;2022-09-20T16:51:24;13.30;99.90
39847;DHT22;25517;52.422;10.782;2022-09-20T16:53:53;13.20;99.90
39847;DHT22;25517;52.422;10.782;2022-09-20T16:56:25;13.20;99.90
39847;DHT22;25517;52.422;10.782;2022-09-20T16:58:51;13.10;99.90
39847;DHT22;25517;52.422;10.782;2022-09-20T17:01:17;13.00;99.90
39847;DHT22;25517;52.422;10.782;2022-09-20T17:03:43;13.00;99.90
39847;DHT22;25517;52.422;10.782;2022-09-20T17:06:10;12.90;99.90
39847;DHT22;25517;52.422;10.782;2022-09-20T17:08:36;12.80;99.90
39847;DHT22;25517;52.422;10.782;2022-09-20T17:11:16;12.70;99.90
39847;DHT22;25517;52.422;10.782;2022-09-20T17:13:43;12.70;99.90
39847;DHT22;25517;52.422;10.782;2022-09-20T17:16:11;12.70;99.90
39847;DHT22;25517;52.422;10.782;2022-09-20T17:18:37;12.60;99.90
39847;DHT22;25517;52.422;10.782;2022-09-20T17:21:13;12.60;99.90
39847;DHT22;25517;52.422;10.782;2022-09-20T17:23:46;12.50;99.90
39847;DHT22;25517;52.422;10.782;2022-09-20T17:26:15;12.50;99.90
39847;DHT22;25517;52.422;10.782;2022-09-20T17:28:47;12.40;99.90
39847;DHT22;25517;52.422;10.782;2022-09-20T17:31:17;12.40;99.90
39847;DHT22;25517;52.422;10.782;2022-09-20T17:33:43;12.30;99.90
39847;DHT22;25517;52.422;10.782;2022-09-20T17:36:13;12.20;99.90
39847;DHT22;25517;52.422;10.782;2022-09-20T17:38:39;12.20;99.90
39847;DHT22;25517;52.422;10.782;2022-09-20T17:41:07;12.20;99.90
39847;DHT22;25517;52.422;10.782;2022-09-20T17:43:34;12.20;99.90
39847;DHT22;25517;52.422;10.782;2022-09-20T17:48:36;12.10;99.90
39847;DHT22;25517;52.422;10.782;2022-09-20T17:51:03;12.00;99.90
39847;DHT22;25517;52.422;10.782;2022-09-20T17:53:30;12.00;99.90
39847;DHT22;25517;52.422;10.782;2022-09-20T17:55:57;12.00;99.90
39847;DHT22;25517;52.422;10.782;2022-09-20T17:58:23;11.90;99.90
39847;DHT22;25517;52.422;10.782;2022-09-20T18:00:50;11.90;99.90
39847;DHT22;25517;52.422;10.782;2022-09-20T18:03:16;11.80;99.90
39847;DHT22;25517;52.422;10.782;2022-09-20T18:05:42;11.80;99.90
39847;DHT22;25517;52.422;10.782;2022-09-20T18:08:08;11.80;99.90
39847;DHT22;25517;52.422;10.782;2022-09-20T18:10:33;11.80;99.90
39847;DHT22;25517;52.422;10.782;2022-09-20T18:13:00;11.80;99.90
39847;DHT22;25517;52.422;10.782;2022-09-20T18:15:26;11.70;99.90
39847;DHT22;25517;52.422;10.782;2022-09-20T18:17:52;11.60;99.90
39847;DHT22;25517;52.422;10.782;2022-09-20T18:20:17;11.60;99.90
39847;DHT22;25517;52.422;10.782;2022-09-20T18:22:46;11.60;99.90
39847;DHT22;25517;52.422;10.782;2022-09-20T18:25:12;11.50;99.90
39847;DHT22;25517;52.422;10.782;2022-09-20T18:27:37;11.50;99.90
39847;DHT22;25517;52.422;10.782;2022-09-20T18:30:03;11.40;99.90
39847;DHT22;25517;52.422;10.782;2022-09-20T18:32:30;11.30;99.90
39847;DHT22;25517;52.422;10.782;2022-09-20T18:34:55;11.40;99.90
39847;DHT22;25517;52.422;10.782;2022-09-20T18:37:21;11.30;99.90
39847;DHT22;25517;52.422;10.782;2022-09-20T18:39:46;11.30;99.90
39847;DHT22;25517;52.422;10.782;2022-09-20T18:42:13;11.30;99.90
39847;DHT22;25517;52.422;10.782;2022-09-20T18:44:38;11.20;99.90
39847;DHT22;25517;52.422;10.782;2022-09-20T18:47:08;11.20;99.90
39847;DHT22;25517;52.422;10.782;2022-09-20T18:49:34;11.20;99.90
39847;DHT22;25517;52.422;10.782;2022-09-20T18:52:00;11.10;99.90
39847;DHT22;25517;52.422;10.782;2022-09-20T18:54:26;11.00;99.90
39847;DHT22;25517;52.422;10.782;2022-09-20T18:56:54;11.00;99.90
39847;DHT22;25517;52.422;10.782;2022-09-20T18:59:21;11.00;99.90
39847;DHT22;25517;52.422;10.782;2022-09-20T19:04:47;10.90;99.90
39847;DHT22;25517;52.422;10.782;2022-09-20T19:10:21;10.70;99.90
39847;DHT22;25517;52.422;10.782;2022-09-20T19:19:01;10.60;99.90
39847;DHT22;25517;52.422;10.782;2022-09-20T19:27:22;10.50;99.90
39847;DHT22;25517;52.422;10.782;2022-09-20T19:29:48;10.40;99.90
39847;DHT22;25517;52.422;10.782;2022-09-20T19:32:16;10.40;99.90
39847;DHT22;25517;52.422;10.782;2022-09-20T19:34:45;10.40;99.90
39847;DHT22;25517;52.422;10.782;2022-09-20T19:37:23;10.40;99.90
39847;DHT22;25517;52.422;10.782;2022-09-20T19:45:39;10.20;99.90